sensor_id;sensor_type;location;lat;lon;timestamp;pressure;altitude;pressure_sealevel;temperature;humidity
16255;BME280;8235;52.198;9.904;2022-08-01T00:01:55;100598.47;;;19.97;91.27
16255;BME280;8235;52.198;9.904;2022-08-01T00:04:21;100591.03;;;19.99;91.76
16255;BME280;8235;52.198;9.904;2022-08-01T00:06:48;100595.59;;;19.99;91.67
16255;BME280;8235;52.198;9.904;2022-08-01T00:09:16;100596.44;;;19.99;91.71
16255;BME280;8235;52.198;9.904;2022-08-01T00:11:42;100599.16;;;19.99;91.82
16255;BME280;8235;52.198;9.904;2022-08-01T00:14:09;100597.44;;;19.98;91.77
16255;BME280;8235;52.198;9.904;2022-08-01T00:16:36;100595.75;;;19.97;91.84
16255;BME280;8235;52.198;9.904;2022-08-01T00:19:02;100591.19;;;19.98;91.92
16255;BME280;8235;52.198;9.904;2022-08-01T00:21:29;100594.06;;;19.96;91.83
16255;BME280;8235;52.198;9.904;2022-08-01T00:23:56;100594.06;;;19.96;92.11
16255;BME280;8235;52.198;9.904;2022-08-01T00:26:23;100594.06;;;19.96;92.20
16255;BME280;8235;52.198;9.904;2022-08-01T00:28:50;100586.94;;;19.95;92.19
16255;BME280;8235;52.198;9.904;2022-08-01T00:31:16;100589.66;;;19.95;92.07
16255;BME280;8235;52.198;9.904;2022-08-01T00:33:43;100587.81;;;19.96;92.33
16255;BME280;8235;52.198;9.904;2022-08-01T00:36:09;100583.25;;;19.96;92.44
16255;BME280;8235;52.198;9.904;2022-08-01T00:38:36;100586.78;;;19.97;92.52
16255;BME280;8235;52.198;9.904;2022-08-01T00:41:03;100591.34;;;19.96;92.17
16255;BME280;8235;52.198;9.904;2022-08-01T00:43:31;100588.66;;;19.96;92.56
16255;BME280;8235;52.198;9.904;2022-08-01T00:45:57;100587.81;;;19.96;92.54
16255;BME280;8235;52.198;9.904;2022-08-01T00:48:24;100590.66;;;19.94;92.44
16255;BME280;8235;52.198;9.904;2022-08-01T00:50:51;100593.38;;;19.94;92.68
16255;BME280;8235;52.198;9.904;2022-08-01T00:53:17;100580.84;;;19.93;92.51
16255;BME280;8235;52.198;9.904;2022-08-01T00:55:44;100580.00;;;19.93;92.68
16255;BME280;8235;52.198;9.904;2022-08-01T00:58:10;100588.13;;;19.93;92.83
16255;BME280;8235;52.198;9.904;2022-08-01T01:00:38;100581.84;;;19.92;93.04
16255;BME280;8235;52.198;9.904;2022-08-01T01:03:05;100577.31;;;19.93;93.00
16255;BME280;8235;52.198;9.904;2022-08-01T01:05:35;100571.91;;;19.93;93.02
16255;BME280;8235;52.198;9.904;2022-08-01T01:08:08;100582.72;;;19.93;93.06
16255;BME280;8235;52.198;9.904;2022-08-01T01:10:42;100581.84;;;19.92;93.37
16255;BME280;8235;52.198;9.904;2022-08-01T01:13:18;100582.88;;;19.91;93.47
16255;BME280;8235;52.198;9.904;2022-08-01T01:15:51;100573.91;;;19.91;93.52
16255;BME280;8235;52.198;9.904;2022-08-01T01:18:23;100583.88;;;19.90;93.88
16255;BME280;8235;52.198;9.904;2022-08-01T01:20:56;100578.63;;;19.89;94.03
16255;BME280;8235;52.198;9.904;2022-08-01T01:23:37;100583.53;;;19.85;94.21
16255;BME280;8235;52.198;9.904;2022-08-01T01:26:23;100583.84;;;19.82;94.21
16255;BME280;8235;52.198;9.904;2022-08-01T01:29:13;100586.53;;;19.82;94.67
16255;BME280;8235;52.198;9.904;2022-08-01T01:31:44;100587.53;;;19.81;95.16
16255;BME280;8235;52.198;9.904;2022-08-01T01:34:13;100586.69;;;19.81;95.39
16255;BME280;8235;52.198;9.904;2022-08-01T01:36:41;100595.25;;;19.76;95.29
16255;BME280;8235;52.198;9.904;2022-08-01T01:39:10;100591.88;;;19.74;95.34
16255;BME280;8235;52.198;9.904;2022-08-01T01:41:40;100592.88;;;19.73;95.43
16255;BME280;8235;52.198;9.904;2022-08-01T01:44:09;100581.56;;;19.69;95.64
16255;BME280;8235;52.198;9.904;2022-08-01T01:46:39;100586.09;;;19.69;95.76
16255;BME280;8235;52.198;9.904;2022-08-01T01:49:07;100588.97;;;19.67;95.68
16255;BME280;8235;52.198;9.904;2022-08-01T01:51:37;100590.81;;;19.67;95.80
16255;BME280;8235;52.198;9.904;2022-08-01T01:54:05;100595.53;;;19.65;95.90
16255;BME280;8235;52.198;9.904;2022-08-01T01:56:34;100584.88;;;19.63;96.18
16255;BME280;8235;52.198;9.904;2022-08-01T01:59:15;100592.13;;;19.63;95.71
16255;BME280;8235;52.198;9.904;2022-08-01T02:01:47;100583.31;;;19.61;95.59
16255;BME280;8235;52.198;9.904;2022-08-01T02:04:15;100591.28;;;19.62;95.70
16255;BME280;8235;52.198;9.904;2022-08-01T02:06:43;100582.47;;;19.60;95.62
16255;BME280;8235;52.198;9.904;2022-08-01T02:09:14;100584.34;;;19.60;95.69
16255;BME280;8235;52.198;9.904;2022-08-01T02:11:44;100583.63;;;19.58;95.28
16255;BME280;8235;52.198;9.904;2022-08-01T02:14:13;100591.75;;;19.58;95.51
16255;BME280;8235;52.198;9.904;2022-08-01T02:16:44;100580.25;;;19.56;95.54
16255;BME280;8235;52.198;9.904;2022-08-01T02:19:13;100580.25;;;19.56;95.16
16255;BME280;8235;52.198;9.904;2022-08-01T02:21:45;100589.34;;;19.55;95.14
16255;BME280;8235;52.198;9.904;2022-08-01T02:24:17;100585.13;;;19.52;95.31
16255;BME280;8235;52.198;9.904;2022-08-01T02:26:48;100592.19;;;19.53;95.24
16255;BME280;8235;52.198;9.904;2022-08-01T02:29:21;100589.69;;;19.52;95.23
16255;BME280;8235;52.198;9.904;2022-08-01T02:31:51;100582.44;;;19.52;95.19
16255;BME280;8235;52.198;9.904;2022-08-01T02:34:21;100587.13;;;19.50;95.40
16255;BME280;8235;52.198;9.904;2022-08-01T02:36:49;100588.84;;;19.51;95.60
16255;BME280;8235;52.198;9.904;2022-08-01T02:39:19;100600.66;;;19.50;95.37
16255;BME280;8235;52.198;9.904;2022-08-01T02:41:50;100589.97;;;19.49;95.74
16255;BME280;8235;52.198;9.904;2022-08-01T02:44:24;100598.78;;;19.51;95.60
16255;BME280;8235;52.198;9.904;2022-08-01T02:46:54;100608.59;;;19.52;95.97
16255;BME280;8235;52.198;9.904;2022-08-01T02:49:24;100611.28;;;19.52;95.71
16255;BME280;8235;52.198;9.904;2022-08-01T02:51:52;100617.97;;;19.48;95.41
16255;BME280;8235;52.198;9.904;2022-08-01T02:54:21;100616.56;;;19.43;95.19
16255;BME280;8235;52.198;9.904;2022-08-01T02:56:50;100604.53;;;19.38;95.35
16255;BME280;8235;52.198;9.904;2022-08-01T02:59:18;100607.72;;;19.33;95.29
16255;BME280;8235;52.198;9.904;2022-08-01T03:01:52;100612.72;;;19.28;95.05
16255;BME280;8235;52.198;9.904;2022-08-01T03:04:20;100606.94;;;19.23;95.36
16255;BME280;8235;52.198;9.904;2022-08-01T03:06:48;100610.94;;;19.19;95.57
16255;BME280;8235;52.198;9.904;2022-08-01T03:09:16;100612.25;;;19.15;95.67
16255;BME280;8235;52.198;9.904;2022-08-01T03:11:44;100610.72;;;19.13;95.91
16255;BME280;8235;52.198;9.904;2022-08-01T03:14:12;100622.50;;;19.12;96.25
16255;BME280;8235;52.198;9.904;2022-08-01T03:16:42;100621.66;;;19.11;96.39
16255;BME280;8235;52.198;9.904;2022-08-01T03:19:13;100610.16;;;19.09;96.84
16255;BME280;8235;52.198;9.904;2022-08-01T03:21:40;100604.75;;;19.09;96.78
16255;BME280;8235;52.198;9.904;2022-08-01T03:24:10;100614.72;;;19.08;97.03
16255;BME280;8235;52.198;9.904;2022-08-01T03:26:38;100616.56;;;19.08;97.24
16255;BME280;8235;52.198;9.904;2022-08-01T03:29:08;100617.25;;;19.10;97.26
16255;BME280;8235;52.198;9.904;2022-08-01T03:31:37;100622.50;;;19.12;97.52
16255;BME280;8235;52.198;9.904;2022-08-01T03:34:08;100619.66;;;19.13;97.77
16255;BME280;8235;52.198;9.904;2022-08-01T03:36:41;100622.22;;;19.15;97.83
16255;BME280;8235;52.198;9.904;2022-08-01T03:39:10;100622.06;;;19.16;98.00
16255;BME280;8235;52.198;9.904;2022-08-01T03:41:41;100624.75;;;19.16;98.10
16255;BME280;8235;52.198;9.904;2022-08-01T03:44:13;100635.22;;;19.19;97.92
16255;BME280;8235;52.198;9.904;2022-08-01T03:46:43;100630.84;;;19.18;97.96
16255;BME280;8235;52.198;9.904;2022-08-01T03:49:14;100636.41;;;19.17;97.88
16255;BME280;8235;52.198;9.904;2022-08-01T03:51:47;100628.63;;;19.14;97.88
16255;BME280;8235;52.198;9.904;2022-08-01T03:54:15;100627.91;;;19.12;97.88
16255;BME280;8235;52.198;9.904;2022-08-01T03:56:44;100633.47;;;19.10;97.79
16255;BME280;8235;52.198;9.904;2022-08-01T03:59:14;100635.47;;;19.08;98.01
16255;BME280;8235;52.198;9.904;2022-08-01T04:01:41;100635.47;;;19.08;98.13
16255;BME280;8235;52.198;9.904;2022-08-01T04:04:07;100636.59;;;19.05;97.86
16255;BME280;8235;52.198;9.904;2022-08-01T04:06:37;100640.31;;;19.04;98.07
16255;BME280;8235;52.198;9.904;2022-08-01T04:09:06;100649.41;;;19.03;97.96
16255;BME280;8235;52.198;9.904;2022-08-01T04:11:33;100653.09;;;19.02;97.98
16255;BME280;8235;52.198;9.904;2022-08-01T04:14:00;100654.25;;;19.00;98.08
16255;BME280;8235;52.198;9.904;2022-08-01T04:16:27;100650.03;;;18.97;97.91
16255;BME280;8235;52.198;9.904;2022-08-01T04:18:53;100648.34;;;18.96;98.06
16255;BME280;8235;52.198;9.904;2022-08-01T04:21:22;100653.03;;;18.94;97.90
16255;BME280;8235;52.198;9.904;2022-08-01T04:23:50;100651.63;;;18.90;97.68
16255;BME280;8235;52.198;9.904;2022-08-01T04:26:21;100654.63;;;18.87;97.46
16255;BME280;8235;52.198;9.904;2022-08-01T04:28:50;100661.00;;;18.86;97.49
16255;BME280;8235;52.198;9.904;2022-08-01T04:31:20;100670.09;;;18.85;97.53
16255;BME280;8235;52.198;9.904;2022-08-01T04:33:49;100669.41;;;18.83;97.48
16255;BME280;8235;52.198;9.904;2022-08-01T04:36:19;100668.88;;;18.80;96.75
16255;BME280;8235;52.198;9.904;2022-08-01T04:38:50;100673.44;;;18.79;96.77
16255;BME280;8235;52.198;9.904;2022-08-01T04:41:20;100678.81;;;18.79;96.90
16255;BME280;8235;52.198;9.904;2022-08-01T04:43:48;100690.28;;;18.81;96.76
16255;BME280;8235;52.198;9.904;2022-08-01T04:46:17;100688.44;;;18.82;96.85
16255;BME280;8235;52.198;9.904;2022-08-01T04:48:45;100682.19;;;18.81;96.99
16255;BME280;8235;52.198;9.904;2022-08-01T04:51:18;100689.28;;;18.82;96.74
16255;BME280;8235;52.198;9.904;2022-08-01T04:53:47;100689.28;;;18.82;97.06
16255;BME280;8235;52.198;9.904;2022-08-01T04:56:17;100694.53;;;18.84;96.98
16255;BME280;8235;52.198;9.904;2022-08-01T04:58:45;100697.94;;;18.86;97.08
16255;BME280;8235;52.198;9.904;2022-08-01T05:01:12;100697.66;;;18.89;97.19
16255;BME280;8235;52.198;9.904;2022-08-01T05:03:39;100703.59;;;18.92;97.28
16255;BME280;8235;52.198;9.904;2022-08-01T05:06:06;100702.59;;;18.93;97.49
16255;BME280;8235;52.198;9.904;2022-08-01T05:08:32;100698.63;;;18.97;97.57
16255;BME280;8235;52.198;9.904;2022-08-01T05:10:59;100708.22;;;19.00;97.65
16255;BME280;8235;52.198;9.904;2022-08-01T05:13:26;100702.69;;;19.01;97.82
16255;BME280;8235;52.198;9.904;2022-08-01T05:15:54;100702.53;;;19.03;97.79
16255;BME280;8235;52.198;9.904;2022-08-01T05:18:21;100706.78;;;19.05;97.94
16255;BME280;8235;52.198;9.904;2022-08-01T05:20:48;100714.59;;;19.08;97.95
16255;BME280;8235;52.198;9.904;2022-08-01T05:23:14;100711.75;;;19.10;97.92
16255;BME280;8235;52.198;9.904;2022-08-01T05:25:41;100716.16;;;19.11;97.80
16255;BME280;8235;52.198;9.904;2022-08-01T05:28:07;100712.59;;;19.11;97.81
16255;BME280;8235;52.198;9.904;2022-08-01T05:30:34;100728.66;;;19.12;97.78
16255;BME280;8235;52.198;9.904;2022-08-01T05:33:02;100723.41;;;19.11;97.78
16255;BME280;8235;52.198;9.904;2022-08-01T05:35:29;100716.28;;;19.10;97.74
16255;BME280;8235;52.198;9.904;2022-08-01T05:37:56;100711.91;;;19.08;97.38
16255;BME280;8235;52.198;9.904;2022-08-01T05:40:23;100717.44;;;19.07;97.38
16255;BME280;8235;52.198;9.904;2022-08-01T05:42:49;100719.28;;;19.06;97.54
16255;BME280;8235;52.198;9.904;2022-08-01T05:45:16;100726.53;;;19.06;97.56
16255;BME280;8235;52.198;9.904;2022-08-01T05:47:42;100723.00;;;19.05;97.58
16255;BME280;8235;52.198;9.904;2022-08-01T05:50:10;100728.53;;;19.04;97.74
16255;BME280;8235;52.198;9.904;2022-08-01T05:52:37;100734.06;;;19.02;97.56
16255;BME280;8235;52.198;9.904;2022-08-01T05:55:05;100727.97;;;19.00;97.59
16255;BME280;8235;52.198;9.904;2022-08-01T05:57:32;100738.09;;;18.98;97.62
16255;BME280;8235;52.198;9.904;2022-08-01T05:59:58;100732.00;;;18.96;97.83
16255;BME280;8235;52.198;9.904;2022-08-01T06:02:25;100732.16;;;18.95;98.02
16255;BME280;8235;52.198;9.904;2022-08-01T06:04:52;100735.69;;;18.95;97.90
16255;BME280;8235;52.198;9.904;2022-08-01T06:07:20;100732.84;;;18.97;98.42
16255;BME280;8235;52.198;9.904;2022-08-01T06:09:47;100742.66;;;18.98;98.37
16255;BME280;8235;52.198;9.904;2022-08-01T06:12:13;100742.31;;;19.01;98.65
16255;BME280;8235;52.198;9.904;2022-08-01T06:14:40;100748.56;;;19.01;98.49
16255;BME280;8235;52.198;9.904;2022-08-01T06:17:06;100745.88;;;19.01;99.00
16255;BME280;8235;52.198;9.904;2022-08-01T06:19:33;100745.72;;;19.03;98.78
16255;BME280;8235;52.198;9.904;2022-08-01T06:21:59;100751.13;;;19.03;98.97
16255;BME280;8235;52.198;9.904;2022-08-01T06:24:27;100753.53;;;19.06;99.13
16255;BME280;8235;52.198;9.904;2022-08-01T06:26:54;100753.38;;;19.07;99.33
16255;BME280;8235;52.198;9.904;2022-08-01T06:29:20;100756.66;;;19.11;99.37
16255;BME280;8235;52.198;9.904;2022-08-01T06:31:47;100751.94;;;19.13;99.57
16255;BME280;8235;52.198;9.904;2022-08-01T06:34:13;100763.97;;;19.19;99.74
16255;BME280;8235;52.198;9.904;2022-08-01T06:36:40;100763.53;;;19.23;99.73
16255;BME280;8235;52.198;9.904;2022-08-01T06:39:07;100764.78;;;19.29;99.83
16255;BME280;8235;52.198;9.904;2022-08-01T06:41:35;100767.06;;;19.33;99.76
16255;BME280;8235;52.198;9.904;2022-08-01T06:44:01;100770.13;;;19.38;99.59
16255;BME280;8235;52.198;9.904;2022-08-01T06:46:29;100763.44;;;19.42;99.61
16255;BME280;8235;52.198;9.904;2022-08-01T06:48:56;100764.84;;;19.47;99.44
16255;BME280;8235;52.198;9.904;2022-08-01T06:51:22;100774.50;;;19.49;99.39
16255;BME280;8235;52.198;9.904;2022-08-01T06:53:49;100765.41;;;19.50;98.96
16255;BME280;8235;52.198;9.904;2022-08-01T06:56:16;100759.69;;;19.53;99.10
16255;BME280;8235;52.198;9.904;2022-08-01T06:58:43;100766.34;;;19.59;99.04
16255;BME280;8235;52.198;9.904;2022-08-01T07:01:10;100768.75;;;19.62;98.89
16255;BME280;8235;52.198;9.904;2022-08-01T07:03:37;100772.16;;;19.64;98.24
16255;BME280;8235;52.198;9.904;2022-08-01T07:06:04;100771.16;;;19.65;98.11
16255;BME280;8235;52.198;9.904;2022-08-01T07:08:31;100775.69;;;19.64;97.86
16255;BME280;8235;52.198;9.904;2022-08-01T07:10:57;100774.69;;;19.65;97.61
16255;BME280;8235;52.198;9.904;2022-08-01T07:13:25;100781.97;;;19.65;97.31
16255;BME280;8235;52.198;9.904;2022-08-01T07:15:53;100784.97;;;19.62;96.73
16255;BME280;8235;52.198;9.904;2022-08-01T07:18:19;100782.69;;;19.57;96.54
16255;BME280;8235;52.198;9.904;2022-08-01T07:20:46;100783.00;;;19.54;96.13
16255;BME280;8235;52.198;9.904;2022-08-01T07:23:13;100789.84;;;19.49;95.66
16255;BME280;8235;52.198;9.904;2022-08-01T07:25:39;100789.28;;;19.45;95.77
16255;BME280;8235;52.198;9.904;2022-08-01T07:28:06;100784.34;;;19.40;95.97
16255;BME280;8235;52.198;9.904;2022-08-01T07:30:33;100790.19;;;19.36;95.42
16255;BME280;8235;52.198;9.904;2022-08-01T07:33:01;100794.34;;;19.30;95.20
16255;BME280;8235;52.198;9.904;2022-08-01T07:35:28;100792.94;;;19.26;95.17
16255;BME280;8235;52.198;9.904;2022-08-01T07:37:54;100795.94;;;19.23;95.20
16255;BME280;8235;52.198;9.904;2022-08-01T07:40:21;100795.94;;;19.23;95.39
16255;BME280;8235;52.198;9.904;2022-08-01T07:42:48;100801.34;;;19.23;95.30
16255;BME280;8235;52.198;9.904;2022-08-01T07:45:14;100795.94;;;19.23;95.29
16255;BME280;8235;52.198;9.904;2022-08-01T07:47:41;100800.47;;;19.23;95.21
16255;BME280;8235;52.198;9.904;2022-08-01T07:50:10;100801.91;;;19.27;95.60
16255;BME280;8235;52.198;9.904;2022-08-01T07:52:39;100801.47;;;19.31;95.86
16255;BME280;8235;52.198;9.904;2022-08-01T07:55:07;100792.72;;;19.37;95.72
16255;BME280;8235;52.198;9.904;2022-08-01T07:57:34;100801.25;;;19.42;95.83
16255;BME280;8235;52.198;9.904;2022-08-01T08:00:03;100804.34;;;19.48;96.02
16255;BME280;8235;52.198;9.904;2022-08-01T08:02:30;100810.16;;;19.53;95.86
16255;BME280;8235;52.198;9.904;2022-08-01T08:04:56;100809.56;;;19.59;96.14
16255;BME280;8235;52.198;9.904;2022-08-01T08:07:25;100812.81;;;19.62;96.03
16255;BME280;8235;52.198;9.904;2022-08-01T08:09:51;100817.94;;;19.65;95.54
16255;BME280;8235;52.198;9.904;2022-08-01T08:15:09;100824.41;;;19.72;95.19
16255;BME280;8235;52.198;9.904;2022-08-01T08:17:36;100815.31;;;19.73;94.96
16255;BME280;8235;52.198;9.904;2022-08-01T08:20:05;100822.09;;;19.77;94.68
16255;BME280;8235;52.198;9.904;2022-08-01T08:22:33;100818.81;;;19.84;94.88
16255;BME280;8235;52.198;9.904;2022-08-01T08:25:00;100826.13;;;19.91;94.88
16255;BME280;8235;52.198;9.904;2022-08-01T08:27:27;100823.69;;;19.98;94.62
16255;BME280;8235;52.198;9.904;2022-08-01T08:29:54;100826.78;;;20.03;94.14
16255;BME280;8235;52.198;9.904;2022-08-01T08:32:20;100827.16;;;20.08;93.71
16255;BME280;8235;52.198;9.904;2022-08-01T08:34:47;100825.84;;;20.12;93.18
16255;BME280;8235;52.198;9.904;2022-08-01T08:37:16;100826.25;;;20.17;93.07
16255;BME280;8235;52.198;9.904;2022-08-01T08:39:45;100829.19;;;20.24;92.46
16255;BME280;8235;52.198;9.904;2022-08-01T08:42:11;100824.44;;;20.26;91.72
16255;BME280;8235;52.198;9.904;2022-08-01T08:44:40;100825.16;;;20.28;91.12
16255;BME280;8235;52.198;9.904;2022-08-01T08:47:07;100830.09;;;20.32;90.85
16255;BME280;8235;52.198;9.904;2022-08-01T08:49:35;100834.06;;;20.38;90.59
16255;BME280;8235;52.198;9.904;2022-08-01T08:52:03;100832.56;;;20.43;90.24
16255;BME280;8235;52.198;9.904;2022-08-01T08:54:32;100841.38;;;20.45;89.84
16255;BME280;8235;52.198;9.904;2022-08-01T08:57:00;100849.34;;;20.47;89.49
16255;BME280;8235;52.198;9.904;2022-08-01T08:59:27;100846.34;;;20.50;89.27
16255;BME280;8235;52.198;9.904;2022-08-01T09:01:54;100851.13;;;20.56;89.50
16255;BME280;8235;52.198;9.904;2022-08-01T09:04:21;100852.34;;;20.62;89.42
16255;BME280;8235;52.198;9.904;2022-08-01T09:06:48;100858.59;;;20.62;88.09
16255;BME280;8235;52.198;9.904;2022-08-01T09:09:15;100861.13;;;20.56;86.98
16255;BME280;8235;52.198;9.904;2022-08-01T09:11:41;100859.88;;;20.50;86.39
16255;BME280;8235;52.198;9.904;2022-08-01T09:14:11;100862.72;;;20.49;86.06
16255;BME280;8235;52.198;9.904;2022-08-01T09:16:41;100860.03;;;20.49;85.53
16255;BME280;8235;52.198;9.904;2022-08-01T09:19:13;100869.53;;;20.53;85.28
16255;BME280;8235;52.198;9.904;2022-08-01T09:21:55;100869.97;;;20.66;85.59
16255;BME280;8235;52.198;9.904;2022-08-01T09:24:24;100873.66;;;20.83;85.53
16255;BME280;8235;52.198;9.904;2022-08-01T09:26:50;100872.06;;;20.98;85.01
16255;BME280;8235;52.198;9.904;2022-08-01T09:29:20;100881.97;;;21.07;83.83
16255;BME280;8235;52.198;9.904;2022-08-01T09:31:47;100886.91;;;21.11;82.86
16255;BME280;8235;52.198;9.904;2022-08-01T09:34:15;100885.56;;;21.15;82.23
16255;BME280;8235;52.198;9.904;2022-08-01T09:36:47;100888.81;;;21.19;81.28
16255;BME280;8235;52.198;9.904;2022-08-01T09:39:17;100895.63;;;21.23;80.23
16255;BME280;8235;52.198;9.904;2022-08-01T09:41:44;100900.91;;;21.25;79.74
16255;BME280;8235;52.198;9.904;2022-08-01T09:44:11;100899.72;;;21.27;79.36
16255;BME280;8235;52.198;9.904;2022-08-01T09:46:49;100895.00;;;21.29;78.34
16255;BME280;8235;52.198;9.904;2022-08-01T09:49:27;100899.41;;;21.30;78.25
16255;BME280;8235;52.198;9.904;2022-08-01T09:51:53;100901.13;;;21.31;77.09
16255;BME280;8235;52.198;9.904;2022-08-01T09:54:28;100910.06;;;21.32;77.01
16255;BME280;8235;52.198;9.904;2022-08-01T09:57:07;100910.25;;;21.30;76.64
16255;BME280;8235;52.198;9.904;2022-08-01T09:59:34;100907.53;;;21.30;76.07
16255;BME280;8235;52.198;9.904;2022-08-01T10:02:03;100912.78;;;21.32;76.12
16255;BME280;8235;52.198;9.904;2022-08-01T10:04:30;100919.91;;;21.33;76.23
16255;BME280;8235;52.198;9.904;2022-08-01T10:07:04;100910.59;;;21.35;75.95
16255;BME280;8235;52.198;9.904;2022-08-01T10:09:32;100917.03;;;21.34;75.65
16255;BME280;8235;52.198;9.904;2022-08-01T10:12:00;100921.09;;;21.30;75.16
16255;BME280;8235;52.198;9.904;2022-08-01T10:14:28;100920.00;;;21.23;74.50
16255;BME280;8235;52.198;9.904;2022-08-01T10:16:56;100921.63;;;21.16;74.32
16255;BME280;8235;52.198;9.904;2022-08-01T10:19:26;100920.75;;;21.15;74.35
16255;BME280;8235;52.198;9.904;2022-08-01T10:21:54;100920.75;;;21.15;74.11
16255;BME280;8235;52.198;9.904;2022-08-01T10:24:22;100927.03;;;21.16;74.20
16255;BME280;8235;52.198;9.904;2022-08-01T10:26:51;100920.34;;;21.20;74.26
16255;BME280;8235;52.198;9.904;2022-08-01T10:29:21;100924.44;;;21.24;73.91
16255;BME280;8235;52.198;9.904;2022-08-01T10:31:48;100918.53;;;21.29;73.98
16255;BME280;8235;52.198;9.904;2022-08-01T10:34:16;100921.75;;;21.32;73.33
16255;BME280;8235;52.198;9.904;2022-08-01T10:36:46;100920.44;;;21.36;73.09
16255;BME280;8235;52.198;9.904;2022-08-01T10:39:13;100914.38;;;21.42;72.91
16255;BME280;8235;52.198;9.904;2022-08-01T10:41:41;100907.47;;;21.48;72.71
16255;BME280;8235;52.198;9.904;2022-08-01T10:44:08;100915.78;;;21.55;72.51
16255;BME280;8235;52.198;9.904;2022-08-01T10:46:37;100918.72;;;21.61;72.38
16255;BME280;8235;52.198;9.904;2022-08-01T10:49:06;100927.03;;;21.68;71.82
16255;BME280;8235;52.198;9.904;2022-08-01T10:51:34;100918.25;;;21.74;71.47
16255;BME280;8235;52.198;9.904;2022-08-01T10:54:06;100922.34;;;21.78;71.14
16255;BME280;8235;52.198;9.904;2022-08-01T10:56:39;100924.03;;;21.79;70.77
16255;BME280;8235;52.198;9.904;2022-08-01T10:59:06;100925.06;;;21.78;70.30
16255;BME280;8235;52.198;9.904;2022-08-01T11:01:33;100924.38;;;21.76;70.07
16255;BME280;8235;52.198;9.904;2022-08-01T11:04:06;100931.50;;;21.77;70.37
16255;BME280;8235;52.198;9.904;2022-08-01T11:06:40;100925.91;;;21.78;70.21
16255;BME280;8235;52.198;9.904;2022-08-01T11:09:38;100921.88;;;21.82;70.21
16255;BME280;8235;52.198;9.904;2022-08-01T11:12:07;100924.06;;;21.87;69.61
16255;BME280;8235;52.198;9.904;2022-08-01T11:15:16;100926.28;;;21.92;69.17
16255;BME280;8235;52.198;9.904;2022-08-01T11:17:49;100925.97;;;21.95;68.44
16255;BME280;8235;52.198;9.904;2022-08-01T11:20:17;100918.53;;;21.97;67.98
16255;BME280;8235;52.198;9.904;2022-08-01T11:26:09;100929.66;;;22.20;68.43
16255;BME280;8235;52.198;9.904;2022-08-01T11:28:36;100921.69;;;22.26;67.72
16255;BME280;8235;52.198;9.904;2022-08-01T11:31:26;100925.44;;;22.33;67.14
16255;BME280;8235;52.198;9.904;2022-08-01T11:33:53;100925.13;;;22.36;66.54
16255;BME280;8235;52.198;9.904;2022-08-01T11:36:20;100929.69;;;22.36;66.20
16255;BME280;8235;52.198;9.904;2022-08-01T11:38:49;100932.25;;;22.37;66.00
16255;BME280;8235;52.198;9.904;2022-08-01T11:41:37;100935.44;;;22.41;65.38
16255;BME280;8235;52.198;9.904;2022-08-01T11:44:05;100931.88;;;22.40;65.02
16255;BME280;8235;52.198;9.904;2022-08-01T11:46:55;100932.41;;;22.44;64.97
16255;BME280;8235;52.198;9.904;2022-08-01T11:52:24;100934.28;;;22.51;64.13
16255;BME280;8235;52.198;9.904;2022-08-01T11:54:53;100938.03;;;22.50;63.52
16255;BME280;8235;52.198;9.904;2022-08-01T11:57:23;100940.41;;;22.54;63.14
16255;BME280;8235;52.198;9.904;2022-08-01T11:59:55;100937.00;;;22.60;62.91
16255;BME280;8235;52.198;9.904;2022-08-01T12:02:24;100931.41;;;22.61;62.18
16255;BME280;8235;52.198;9.904;2022-08-01T12:04:54;100939.72;;;22.60;61.99
16255;BME280;8235;52.198;9.904;2022-08-01T12:07:22;100938.88;;;22.59;61.66
16255;BME280;8235;52.198;9.904;2022-08-01T12:09:57;100940.25;;;22.55;61.48
16255;BME280;8235;52.198;9.904;2022-08-01T12:12:28;100938.00;;;22.59;61.94
16255;BME280;8235;52.198;9.904;2022-08-01T12:14:56;100936.66;;;22.63;62.20
16255;BME280;8235;52.198;9.904;2022-08-01T12:17:31;100940.44;;;22.70;62.71
16255;BME280;8235;52.198;9.904;2022-08-01T12:19:58;100943.50;;;22.75;62.61
16255;BME280;8235;52.198;9.904;2022-08-01T12:22:25;100943.16;;;22.78;62.06
16255;BME280;8235;52.198;9.904;2022-08-01T12:24:53;100935.53;;;22.81;62.13
16255;BME280;8235;52.198;9.904;2022-08-01T12:27:25;100936.91;;;22.85;62.13
16255;BME280;8235;52.198;9.904;2022-08-01T12:29:53;100936.88;;;22.94;61.69
16255;BME280;8235;52.198;9.904;2022-08-01T12:32:26;100932.47;;;23.01;61.65
16255;BME280;8235;52.198;9.904;2022-08-01T12:34:55;100940.47;;;23.10;61.03
16255;BME280;8235;52.198;9.904;2022-08-01T12:37:23;100933.47;;;23.16;60.85
16255;BME280;8235;52.198;9.904;2022-08-01T12:39:49;100939.25;;;23.21;60.53
16255;BME280;8235;52.198;9.904;2022-08-01T12:42:16;100940.59;;;23.25;60.07
16255;BME280;8235;52.198;9.904;2022-08-01T12:44:45;100937.72;;;23.27;59.56
16255;BME280;8235;52.198;9.904;2022-08-01T12:47:14;100938.75;;;23.26;59.34
16255;BME280;8235;52.198;9.904;2022-08-01T12:49:42;100947.06;;;23.24;59.29
16255;BME280;8235;52.198;9.904;2022-08-01T12:52:11;100946.88;;;23.26;59.09
16255;BME280;8235;52.198;9.904;2022-08-01T12:55:06;100950.09;;;23.29;59.00
16255;BME280;8235;52.198;9.904;2022-08-01T12:57:35;100945.00;;;23.34;58.72
16255;BME280;8235;52.198;9.904;2022-08-01T13:00:13;100939.03;;;23.39;58.45
16255;BME280;8235;52.198;9.904;2022-08-01T13:02:43;100936.13;;;23.48;58.50
16255;BME280;8235;52.198;9.904;2022-08-01T13:05:11;100941.59;;;23.57;57.72
16255;BME280;8235;52.198;9.904;2022-08-01T13:07:44;100934.22;;;23.65;57.29
16255;BME280;8235;52.198;9.904;2022-08-01T13:10:12;100935.25;;;23.72;56.68
16255;BME280;8235;52.198;9.904;2022-08-01T13:12:40;100935.41;;;23.79;56.37
16255;BME280;8235;52.198;9.904;2022-08-01T13:15:22;100936.38;;;23.86;56.32
16255;BME280;8235;52.198;9.904;2022-08-01T13:17:51;100933.31;;;23.89;55.07
16255;BME280;8235;52.198;9.904;2022-08-01T13:20:26;100938.56;;;23.91;55.28